sensor_id;sensor_type;location;lat;lon;timestamp;pressure;altitude;pressure_sealevel;temperature;humidity
76195;BME280;64964;48.694;21.206;2024-03-07T00:02:08;97958.13;;;5.04;64.70
76195;BME280;64964;48.694;21.206;2024-03-07T00:04:33;97970.56;;;5.11;64.71
76195;BME280;64964;48.694;21.206;2024-03-07T00:06:59;97984.34;;;5.13;64.50
76195;BME280;64964;48.694;21.206;2024-03-07T00:09:25;97976.63;;;5.12;64.55
76195;BME280;64964;48.694;21.206;2024-03-07T00:11:50;97969.88;;;5.09;64.58
76195;BME280;64964;48.694;21.206;2024-03-07T00:14:15;97964.91;;;5.06;64.53
76195;BME280;64964;48.694;21.206;2024-03-07T00:16:41;97964.78;;;5.08;64.58
76195;BME280;64964;48.694;21.206;2024-03-07T00:19:06;97958.81;;;5.06;64.54
76195;BME280;64964;48.694;21.206;2024-03-07T00:21:32;97953.16;;;5.00;64.79
76195;BME280;64964;48.694;21.206;2024-03-07T00:23:57;97957.06;;;5.06;64.62
76195;BME280;64964;48.694;21.206;2024-03-07T00:26:22;97966.69;;;5.06;64.72
76195;BME280;64964;48.694;21.206;2024-03-07T00:28:48;97971.09;;;5.05;64.61
76195;BME280;64964;48.694;21.206;2024-03-07T00:31:13;97967.53;;;5.06;64.46
76195;BME280;64964;48.694;21.206;2024-03-07T00:33:39;97961.59;;;5.04;64.43
76195;BME280;64964;48.694;21.206;2024-03-07T00:36:04;97960.19;;;5.00;64.48
76195;BME280;64964;48.694;21.206;2024-03-07T00:38:31;97957.44;;;5.02;64.42
76195;BME280;64964;48.694;21.206;2024-03-07T00:40:56;97966.81;;;5.04;64.33
76195;BME280;64964;48.694;21.206;2024-03-07T00:43:21;97950.41;;;4.92;64.15
76195;BME280;64964;48.694;21.206;2024-03-07T00:45:47;97969.59;;;5.03;64.51
76195;BME280;64964;48.694;21.206;2024-03-07T00:48:15;97954.53;;;4.95;64.14
76195;BME280;64964;48.694;21.206;2024-03-07T00:50:41;97962.69;;;5.02;64.38
76195;BME280;64964;48.694;21.206;2024-03-07T00:53:08;97950.28;;;4.94;64.44
76195;BME280;64964;48.694;21.206;2024-03-07T00:55:33;97966.00;;;5.04;64.15
76195;BME280;64964;48.694;21.206;2024-03-07T00:57:59;97961.31;;;4.97;64.27
76195;BME280;64964;48.694;21.206;2024-03-07T01:00:24;97971.50;;;5.00;64.33
76195;BME280;64964;48.694;21.206;2024-03-07T01:02:49;97962.25;;;4.96;64.16
76195;BME280;64964;48.694;21.206;2024-03-07T01:05:18;97968.78;;;5.02;64.18
76195;BME280;64964;48.694;21.206;2024-03-07T01:07:44;97976.63;;;5.02;64.27
76195;BME280;64964;48.694;21.206;2024-03-07T01:10:12;97968.88;;;5.00;64.17
76195;BME280;64964;48.694;21.206;2024-03-07T01:12:37;97959.22;;;5.01;64.11
76195;BME280;64964;48.694;21.206;2024-03-07T01:15:03;97964.75;;;4.98;64.02
76195;BME280;64964;48.694;21.206;2024-03-07T01:17:29;97960.03;;;4.92;64.16
76195;BME280;64964;48.694;21.206;2024-03-07T01:19:55;97940.06;;;4.81;64.04
76195;BME280;64964;48.694;21.206;2024-03-07T01:22:20;97958.00;;;4.95;64.10
76195;BME280;64964;48.694;21.206;2024-03-07T01:24:47;97964.31;;;4.93;64.34
76195;BME280;64964;48.694;21.206;2024-03-07T01:27:12;97954.09;;;4.80;64.50
76195;BME280;64964;48.694;21.206;2024-03-07T01:29:38;97967.22;;;4.90;64.31
76195;BME280;64964;48.694;21.206;2024-03-07T01:32:06;97958.66;;;4.88;64.23
76195;BME280;64964;48.694;21.206;2024-03-07T01:34:31;97971.22;;;4.94;64.16
76195;BME280;64964;48.694;21.206;2024-03-07T01:36:57;97961.69;;;4.93;64.15
76195;BME280;64964;48.694;21.206;2024-03-07T01:39:22;97970.41;;;4.93;64.48
76195;BME280;64964;48.694;21.206;2024-03-07T01:41:48;97960.44;;;4.87;64.17
76195;BME280;64964;48.694;21.206;2024-03-07T01:44:14;97950.69;;;4.89;64.03
76195;BME280;64964;48.694;21.206;2024-03-07T01:46:39;97968.72;;;4.92;64.21
76195;BME280;64964;48.694;21.206;2024-03-07T01:49:07;97958.25;;;4.92;64.08
76195;BME280;64964;48.694;21.206;2024-03-07T01:51:35;97961.69;;;4.93;64.10
76195;BME280;64964;48.694;21.206;2024-03-07T01:54:01;97936.56;;;4.81;64.18
76195;BME280;64964;48.694;21.206;2024-03-07T01:56:27;97960.03;;;4.92;64.16
76195;BME280;64964;48.694;21.206;2024-03-07T01:58:53;97947.63;;;4.84;63.87
76195;BME280;64964;48.694;21.206;2024-03-07T02:01:20;97953.97;;;4.91;63.99
76195;BME280;64964;48.694;21.206;2024-03-07T02:03:45;97919.19;;;4.70;63.83
76195;BME280;64964;48.694;21.206;2024-03-07T02:06:11;97949.28;;;4.85;63.99
76195;BME280;64964;48.694;21.206;2024-03-07T02:08:37;97973.56;;;4.97;63.83
76195;BME280;64964;48.694;21.206;2024-03-07T02:11:02;97962.56;;;4.93;63.87
76195;BME280;64964;48.694;21.206;2024-03-07T02:13:28;97959.94;;;4.93;63.95
76195;BME280;64964;48.694;21.206;2024-03-07T02:15:54;97962.25;;;4.96;63.71
76195;BME280;64964;48.694;21.206;2024-03-07T02:18:20;97972.88;;;4.95;63.89
76195;BME280;64964;48.694;21.206;2024-03-07T02:20:45;97955.94;;;4.89;63.82
76195;BME280;64964;48.694;21.206;2024-03-07T02:23:11;97959.78;;;4.95;63.79
76195;BME280;64964;48.694;21.206;2024-03-07T02:25:37;97912.00;;;4.62;63.79
76195;BME280;64964;48.694;21.206;2024-03-07T02:28:04;97966.00;;;4.94;63.88
76195;BME280;64964;48.694;21.206;2024-03-07T02:30:30;97954.13;;;4.90;63.89
76195;BME280;64964;48.694;21.206;2024-03-07T02:32:58;97955.22;;;4.97;63.82
76195;BME280;64964;48.694;21.206;2024-03-07T02:35:25;97965.59;;;4.98;63.65
76195;BME280;64964;48.694;21.206;2024-03-07T02:37:50;97969.03;;;4.99;63.47
76195;BME280;64964;48.694;21.206;2024-03-07T02:40:16;97905.53;;;4.66;63.54
76195;BME280;64964;48.694;21.206;2024-03-07T02:42:42;97946.13;;;4.91;63.61
76195;BME280;64964;48.694;21.206;2024-03-07T02:45:08;97962.00;;;4.99;63.59
76195;BME280;64964;48.694;21.206;2024-03-07T02:47:33;97972.75;;;4.96;63.60
76195;BME280;64964;48.694;21.206;2024-03-07T02:49:59;97864.97;;;4.32;63.57
76195;BME280;64964;48.694;21.206;2024-03-07T02:52:24;97955.63;;;4.83;63.58
76195;BME280;64964;48.694;21.206;2024-03-07T02:54:49;97965.44;;;4.90;63.85
76195;BME280;64964;48.694;21.206;2024-03-07T02:57:15;97975.75;;;4.92;63.84
76195;BME280;64964;48.694;21.206;2024-03-07T02:59:41;97971.75;;;4.88;63.76
76195;BME280;64964;48.694;21.206;2024-03-07T03:02:07;97972.47;;;4.90;63.93
76195;BME280;64964;48.694;21.206;2024-03-07T03:04:32;97933.25;;;4.69;63.78
76195;BME280;64964;48.694;21.206;2024-03-07T03:06:58;97973.28;;;4.90;64.00
76195;BME280;64964;48.694;21.206;2024-03-07T03:09:23;97966.25;;;4.91;63.77
76195;BME280;64964;48.694;21.206;2024-03-07T03:11:49;97967.75;;;4.84;63.81
76195;BME280;64964;48.694;21.206;2024-03-07T03:14:14;97969.69;;;4.91;63.94
76195;BME280;64964;48.694;21.206;2024-03-07T03:16:43;97972.47;;;4.90;64.05
76195;BME280;64964;48.694;21.206;2024-03-07T03:19:11;97969.97;;;4.88;64.09
76195;BME280;64964;48.694;21.206;2024-03-07T03:21:37;97974.63;;;4.85;64.25
76195;BME280;64964;48.694;21.206;2024-03-07T03:24:03;97979.88;;;4.85;64.16
76195;BME280;64964;48.694;21.206;2024-03-07T03:26:29;97953.56;;;4.77;64.53
76195;BME280;64964;48.694;21.206;2024-03-07T03:28:57;97961.53;;;4.85;64.26
76195;BME280;64964;48.694;21.206;2024-03-07T03:31:22;97963.34;;;4.84;64.28
76195;BME280;64964;48.694;21.206;2024-03-07T03:33:47;97955.75;;;4.81;64.35
76195;BME280;64964;48.694;21.206;2024-03-07T03:36:13;97960.16;;;4.81;64.35
76195;BME280;64964;48.694;21.206;2024-03-07T03:38:39;97974.50;;;4.77;64.79
76195;BME280;64964;48.694;21.206;2024-03-07T03:41:05;97968.00;;;4.81;64.43
76195;BME280;64964;48.694;21.206;2024-03-07T03:43:30;97963.88;;;4.78;64.55
76195;BME280;64964;48.694;21.206;2024-03-07T03:45:55;97965.94;;;4.74;64.71
76195;BME280;64964;48.694;21.206;2024-03-07T03:48:21;97823.91;;;3.82;64.57
76195;BME280;64964;48.694;21.206;2024-03-07T03:50:47;97961.66;;;4.73;64.81
76195;BME280;64964;48.694;21.206;2024-03-07T03:53:12;97966.09;;;4.73;64.93
76195;BME280;64964;48.694;21.206;2024-03-07T03:55:37;97954.22;;;4.69;64.84
76195;BME280;64964;48.694;21.206;2024-03-07T03:58:03;97951.28;;;4.62;65.00
76195;BME280;64964;48.694;21.206;2024-03-07T04:00:31;97950.06;;;4.66;64.86
76195;BME280;64964;48.694;21.206;2024-03-07T04:02:56;97941.91;;;4.60;64.94
76195;BME280;64964;48.694;21.206;2024-03-07T04:05:22;97961.25;;;4.68;64.81
76195;BME280;64964;48.694;21.206;2024-03-07T04:07:47;97973.13;;;4.72;64.83
76195;BME280;64964;48.694;21.206;2024-03-07T04:10:15;97948.00;;;4.60;64.98
76195;BME280;64964;48.694;21.206;2024-03-07T04:12:41;97966.09;;;4.73;65.09
76195;BME280;64964;48.694;21.206;2024-03-07T04:15:13;97973.22;;;4.71;65.56
76195;BME280;64964;48.694;21.206;2024-03-07T04:17:42;97971.41;;;4.62;65.18
76195;BME280;64964;48.694;21.206;2024-03-07T04:20:07;97966.09;;;4.73;65.21
76195;BME280;64964;48.694;21.206;2024-03-07T04:22:36;97972.25;;;4.72;65.38
76195;BME280;64964;48.694;21.206;2024-03-07T04:25:05;97973.13;;;4.72;65.11
76195;BME280;64964;48.694;21.206;2024-03-07T04:27:32;97974.44;;;4.67;65.39
76195;BME280;64964;48.694;21.206;2024-03-07T04:29:57;97961.50;;;4.65;65.33
76195;BME280;64964;48.694;21.206;2024-03-07T04:32:23;97955.69;;;4.62;65.16
76195;BME280;64964;48.694;21.206;2024-03-07T04:34:48;97982.72;;;4.72;65.44
76195;BME280;64964;48.694;21.206;2024-03-07T04:37:14;97968.81;;;4.71;65.32
76195;BME280;64964;48.694;21.206;2024-03-07T04:39:39;97976.00;;;4.69;65.40
76195;BME280;64964;48.694;21.206;2024-03-07T04:42:06;97984.25;;;4.74;65.13
76195;BME280;64964;48.694;21.206;2024-03-07T04:44:32;97966.03;;;4.63;65.50
76195;BME280;64964;48.694;21.206;2024-03-07T04:46:59;97981.34;;;4.68;65.16
76195;BME280;64964;48.694;21.206;2024-03-07T04:49:26;97988.53;;;4.75;65.35
76195;BME280;64964;48.694;21.206;2024-03-07T04:51:53;97982.72;;;4.72;65.34
76195;BME280;64964;48.694;21.206;2024-03-07T04:54:20;97962.16;;;4.58;65.30
76195;BME280;64964;48.694;21.206;2024-03-07T04:56:46;97994.06;;;4.72;65.36
76195;BME280;64964;48.694;21.206;2024-03-07T04:59:13;97990.59;;;4.72;65.34
76195;BME280;64964;48.694;21.206;2024-03-07T05:01:42;97953.47;;;4.47;65.30
76195;BME280;64964;48.694;21.206;2024-03-07T05:04:08;97976.38;;;4.65;65.33
76195;BME280;64964;48.694;21.206;2024-03-07T05:06:33;97997.38;;;4.74;65.61
76195;BME280;64964;48.694;21.206;2024-03-07T05:09:03;97985.34;;;4.72;65.60
76195;BME280;64964;48.694;21.206;2024-03-07T05:11:32;98005.06;;;4.76;65.44
76195;BME280;64964;48.694;21.206;2024-03-07T05:13:58;98001.63;;;4.75;65.44
76195;BME280;64964;48.694;21.206;2024-03-07T05:16:26;97996.38;;;4.75;65.39
76195;BME280;64964;48.694;21.206;2024-03-07T05:18:51;98010.06;;;4.79;65.30
76195;BME280;64964;48.694;21.206;2024-03-07T05:21:18;97998.75;;;4.79;65.46
76195;BME280;64964;48.694;21.206;2024-03-07T05:24:13;98006.88;;;4.75;65.29
76195;BME280;64964;48.694;21.206;2024-03-07T05:26:38;98012.94;;;4.76;65.50
76195;BME280;64964;48.694;21.206;2024-03-07T05:29:07;98010.19;;;4.78;65.40
76195;BME280;64964;48.694;21.206;2024-03-07T05:31:39;98023.56;;;4.74;65.43
76195;BME280;64964;48.694;21.206;2024-03-07T05:34:14;97999.94;;;4.65;65.44
76195;BME280;64964;48.694;21.206;2024-03-07T05:36:41;98020.94;;;4.74;65.53
76195;BME280;64964;48.694;21.206;2024-03-07T05:39:11;98012.91;;;4.66;65.49
76195;BME280;64964;48.694;21.206;2024-03-07T05:41:38;98022.88;;;4.72;65.54
76195;BME280;64964;48.694;21.206;2024-03-07T05:44:04;98032.38;;;4.73;65.66
76195;BME280;64964;48.694;21.206;2024-03-07T05:46:40;98018.00;;;4.68;65.64
76195;BME280;64964;48.694;21.206;2024-03-07T05:49:09;98024.78;;;4.70;65.91
76195;BME280;64964;48.694;21.206;2024-03-07T05:51:35;98014.63;;;4.77;65.77
76195;BME280;64964;48.694;21.206;2024-03-07T05:54:00;98032.94;;;4.77;65.71
76195;BME280;64964;48.694;21.206;2024-03-07T05:56:26;98027.56;;;4.79;65.74
76195;BME280;64964;48.694;21.206;2024-03-07T05:58:52;98022.19;;;4.80;65.51
76195;BME280;64964;48.694;21.206;2024-03-07T06:01:18;97991.66;;;4.60;65.52
76195;BME280;64964;48.694;21.206;2024-03-07T06:03:46;98020.69;;;4.87;65.56
76195;BME280;64964;48.694;21.206;2024-03-07T06:06:13;98035.72;;;4.85;65.45
76195;BME280;64964;48.694;21.206;2024-03-07T06:08:39;98029.63;;;4.85;65.44
76195;BME280;64964;48.694;21.206;2024-03-07T06:11:08;98035.34;;;4.90;65.51
76195;BME280;64964;48.694;21.206;2024-03-07T06:13:33;98041.25;;;4.92;65.32
76195;BME280;64964;48.694;21.206;2024-03-07T06:15:58;98042.78;;;4.94;65.17
76195;BME280;64964;48.694;21.206;2024-03-07T06:18:24;98039.59;;;4.91;65.31
76195;BME280;64964;48.694;21.206;2024-03-07T06:20:49;98057.69;;;4.94;65.47
76195;BME280;64964;48.694;21.206;2024-03-07T06:23:14;98049.69;;;4.95;65.35
76195;BME280;64964;48.694;21.206;2024-03-07T06:25:42;98037.81;;;4.91;65.30
76195;BME280;64964;48.694;21.206;2024-03-07T06:28:17;98043.31;;;4.88;65.31
76195;BME280;64964;48.694;21.206;2024-03-07T06:30:46;98061.81;;;4.96;65.53
76195;BME280;64964;48.694;21.206;2024-03-07T06:33:13;98056.56;;;4.96;65.57
76195;BME280;64964;48.694;21.206;2024-03-07T06:35:38;98049.41;;;4.98;65.47
76195;BME280;64964;48.694;21.206;2024-03-07T06:38:05;98055.50;;;4.99;65.50
76195;BME280;64964;48.694;21.206;2024-03-07T06:40:32;98067.22;;;5.05;65.32
76195;BME280;64964;48.694;21.206;2024-03-07T06:42:59;98065.56;;;5.04;65.76
76195;BME280;64964;48.694;21.206;2024-03-07T06:45:24;98061.28;;;5.03;65.78
76195;BME280;64964;48.694;21.206;2024-03-07T06:47:50;98045.16;;;4.97;65.91
76195;BME280;64964;48.694;21.206;2024-03-07T06:50:18;98059.34;;;4.95;66.50
76195;BME280;64964;48.694;21.206;2024-03-07T06:52:46;98038.47;;;4.84;66.16
76195;BME280;64964;48.694;21.206;2024-03-07T06:55:16;98028.34;;;4.69;66.36
76195;BME280;64964;48.694;21.206;2024-03-07T06:57:43;98051.44;;;4.85;66.18
76195;BME280;64964;48.694;21.206;2024-03-07T07:00:09;98054.34;;;4.92;65.99
76195;BME280;64964;48.694;21.206;2024-03-07T07:02:39;98073.69;;;5.00;66.56
76195;BME280;64964;48.694;21.206;2024-03-07T07:05:08;98073.00;;;4.98;67.33
76195;BME280;64964;48.694;21.206;2024-03-07T07:07:40;98070.50;;;4.97;67.22
76195;BME280;64964;48.694;21.206;2024-03-07T07:10:09;98077.94;;;5.02;66.35
76195;BME280;64964;48.694;21.206;2024-03-07T07:12:48;98071.47;;;4.96;66.49
76195;BME280;64964;48.694;21.206;2024-03-07T07:15:15;98040.41;;;4.82;65.95
76195;BME280;64964;48.694;21.206;2024-03-07T07:17:43;98065.66;;;4.92;66.18
76195;BME280;64964;48.694;21.206;2024-03-07T07:20:11;98089.81;;;5.06;66.10
76195;BME280;64964;48.694;21.206;2024-03-07T07:22:39;98080.47;;;5.03;66.00
76195;BME280;64964;48.694;21.206;2024-03-07T07:25:05;98094.81;;;5.09;65.71
76195;BME280;64964;48.694;21.206;2024-03-07T07:27:38;98102.69;;;5.09;65.83
76195;BME280;64964;48.694;21.206;2024-03-07T07:30:05;98068.41;;;4.91;65.99
76195;BME280;64964;48.694;21.206;2024-03-07T07:32:32;98104.06;;;5.13;65.93
76195;BME280;64964;48.694;21.206;2024-03-07T07:34:57;98103.09;;;5.14;65.59
76195;BME280;64964;48.694;21.206;2024-03-07T07:37:22;98102.16;;;5.15;65.79
76195;BME280;64964;48.694;21.206;2024-03-07T07:39:48;98111.69;;;5.16;65.60
76195;BME280;64964;48.694;21.206;2024-03-07T07:42:13;98062.75;;;4.86;65.39
76195;BME280;64964;48.694;21.206;2024-03-07T07:44:40;98103.78;;;5.06;65.68
76195;BME280;64964;48.694;21.206;2024-03-07T07:47:05;98103.66;;;5.08;65.57
76195;BME280;64964;48.694;21.206;2024-03-07T07:49:31;98113.16;;;5.09;65.79
76195;BME280;64964;48.694;21.206;2024-03-07T07:51:56;98125.19;;;5.11;66.03
76195;BME280;64964;48.694;21.206;2024-03-07T07:54:22;98116.09;;;5.15;65.93
76195;BME280;64964;48.694;21.206;2024-03-07T07:56:47;98119.53;;;5.16;65.96
76195;BME280;64964;48.694;21.206;2024-03-07T07:59:16;98116.78;;;5.17;66.03
76195;BME280;64964;48.694;21.206;2024-03-07T08:01:42;98073.41;;;4.94;65.84
76195;BME280;64964;48.694;21.206;2024-03-07T08:04:07;98114.16;;;5.17;66.28
76195;BME280;64964;48.694;21.206;2024-03-07T08:06:35;98089.28;;;5.02;66.33
76195;BME280;64964;48.694;21.206;2024-03-07T08:09:00;98116.34;;;5.12;66.37
76195;BME280;64964;48.694;21.206;2024-03-07T08:11:25;98110.28;;;5.12;66.35
76195;BME280;64964;48.694;21.206;2024-03-07T08:13:51;98135.25;;;5.16;66.25
76195;BME280;64964;48.694;21.206;2024-03-07T08:16:17;98124.34;;;5.11;66.53
76195;BME280;64964;48.694;21.206;2024-03-07T08:18:43;98120.34;;;5.07;66.87
76195;BME280;64964;48.694;21.206;2024-03-07T08:21:09;98141.06;;;5.19;66.49
76195;BME280;64964;48.694;21.206;2024-03-07T08:23:38;98127.09;;;5.09;66.53
76195;BME280;64964;48.694;21.206;2024-03-07T08:26:03;98124.59;;;5.08;66.68
76195;BME280;64964;48.694;21.206;2024-03-07T08:28:30;98136.22;;;5.15;66.88
76195;BME280;64964;48.694;21.206;2024-03-07T08:30:56;98149.91;;;5.18;66.52
76195;BME280;64964;48.694;21.206;2024-03-07T08:33:21;98131.91;;;5.04;66.53
76195;BME280;64964;48.694;21.206;2024-03-07T08:35:47;98143.25;;;5.14;66.60
76195;BME280;64964;48.694;21.206;2024-03-07T08:38:13;98153.34;;;5.19;66.82
76195;BME280;64964;48.694;21.206;2024-03-07T08:40:39;98142.03;;;5.18;66.73
76195;BME280;64964;48.694;21.206;2024-03-07T08:43:05;98145.50;;;5.19;66.72
76195;BME280;64964;48.694;21.206;2024-03-07T08:45:32;98144.53;;;5.20;66.67
76195;BME280;64964;48.694;21.206;2024-03-07T08:48:01;98150.72;;;5.19;66.99
76195;BME280;64964;48.694;21.206;2024-03-07T08:50:29;98154.03;;;5.21;66.85
76195;BME280;64964;48.694;21.206;2024-03-07T08:52:55;98150.59;;;5.20;66.51
76195;BME280;64964;48.694;21.206;2024-03-07T08:55:23;98145.34;;;5.20;67.13
76195;BME280;64964;48.694;21.206;2024-03-07T08:57:50;98149.38;;;5.24;66.45
76195;BME280;64964;48.694;21.206;2024-03-07T09:00:17;98154.03;;;5.21;66.70
76195;BME280;64964;48.694;21.206;2024-03-07T09:02:51;98098.72;;;4.84;67.19
76195;BME280;64964;48.694;21.206;2024-03-07T09:05:21;98156.78;;;5.19;67.24
76195;BME280;64964;48.694;21.206;2024-03-07T09:07:51;98118.38;;;4.99;67.33
76195;BME280;64964;48.694;21.206;2024-03-07T09:10:18;98155.69;;;5.22;67.20
76195;BME280;64964;48.694;21.206;2024-03-07T09:12:44;98155.69;;;5.22;67.38
76195;BME280;64964;48.694;21.206;2024-03-07T09:15:10;98163.03;;;5.28;67.39
76195;BME280;64964;48.694;21.206;2024-03-07T09:17:37;98160.28;;;5.30;67.38
76195;BME280;64964;48.694;21.206;2024-03-07T09:20:03;98145.34;;;5.20;67.46
76195;BME280;64964;48.694;21.206;2024-03-07T09:22:32;98126.69;;;5.14;67.08
76195;BME280;64964;48.694;21.206;2024-03-07T09:24:58;98162.66;;;5.42;66.91
76195;BME280;64964;48.694;21.206;2024-03-07T09:27:23;98173.44;;;5.39;67.39
76195;BME280;64964;48.694;21.206;2024-03-07T09:29:49;98066.72;;;4.80;66.95
76195;BME280;64964;48.694;21.206;2024-03-07T09:32:14;98169.59;;;5.43;67.02
76195;BME280;64964;48.694;21.206;2024-03-07T09:34:40;98155.34;;;5.36;67.26
76195;BME280;64964;48.694;21.206;2024-03-07T09:37:05;98173.97;;;5.43;67.06
76195;BME280;64964;48.694;21.206;2024-03-07T09:39:34;98178.72;;;5.49;67.25
76195;BME280;64964;48.694;21.206;2024-03-07T09:42:03;98169.31;;;5.46;66.84
76195;BME280;64964;48.694;21.206;2024-03-07T09:44:28;98183.16;;;5.58;67.03
76195;BME280;64964;48.694;21.206;2024-03-07T09:46:55;98196.00;;;5.61;67.11
76195;BME280;64964;48.694;21.206;2024-03-07T09:49:27;98185.94;;;5.66;66.73
76195;BME280;64964;48.694;21.206;2024-03-07T09:51:54;98147.75;;;5.43;66.59
76195;BME280;64964;48.694;21.206;2024-03-07T09:54:22;98192.72;;;5.69;66.67
76195;BME280;64964;48.694;21.206;2024-03-07T09:56:50;98192.00;;;5.67;66.76
76195;BME280;64964;48.694;21.206;2024-03-07T09:59:19;98184.13;;;5.57;66.91
76195;BME280;64964;48.694;21.206;2024-03-07T10:01:47;98196.69;;;5.63;66.59
76195;BME280;64964;48.694;21.206;2024-03-07T10:04:13;98203.88;;;5.61;66.70
76195;BME280;64964;48.694;21.206;2024-03-07T10:06:42;98197.09;;;5.59;66.80
76195;BME280;64964;48.694;21.206;2024-03-07T10:09:11;98190.03;;;5.49;67.05
76195;BME280;64964;48.694;21.206;2024-03-07T10:11:42;98201.66;;;5.57;66.95
76195;BME280;64964;48.694;21.206;2024-03-07T10:14:09;98204.69;;;5.62;67.01
76195;BME280;64964;48.694;21.206;2024-03-07T10:16:34;98206.22;;;5.64;66.85
76195;BME280;64964;48.694;21.206;2024-03-07T10:19:04;98153.28;;;5.40;67.08
76195;BME280;64964;48.694;21.206;2024-03-07T10:21:29;98212.06;;;5.78;67.45
76195;BME280;64964;48.694;21.206;2024-03-07T10:24:07;98206.69;;;5.79;67.55
76195;BME280;64964;48.694;21.206;2024-03-07T10:26:35;98203.38;;;5.87;66.60
76195;BME280;64964;48.694;21.206;2024-03-07T10:29:01;98208.09;;;5.93;66.81
76195;BME280;64964;48.694;21.206;2024-03-07T10:31:33;98208.00;;;5.94;66.83
76195;BME280;64964;48.694;21.206;2024-03-07T10:34:02;98218.66;;;6.03;66.63
76195;BME280;64964;48.694;21.206;2024-03-07T10:36:31;98216.84;;;6.03;66.53
76195;BME280;64964;48.694;21.206;2024-03-07T10:39:01;98221.28;;;6.03;66.38
76195;BME280;64964;48.694;21.206;2024-03-07T10:41:46;98223.06;;;6.02;66.36
76195;BME280;64964;48.694;21.206;2024-03-07T10:44:24;98215.97;;;5.93;66.23
76195;BME280;64964;48.694;21.206;2024-03-07T10:46:55;98214.56;;;5.89;65.94
76195;BME280;64964;48.694;21.206;2024-03-07T10:49:25;98222.06;;;5.93;66.17
76195;BME280;64964;48.694;21.206;2024-03-07T10:52:06;98219.94;;;5.87;66.75
76195;BME280;64964;48.694;21.206;2024-03-07T10:57:50;98227.81;;;5.87;66.21
76195;BME280;64964;48.694;21.206;2024-03-07T11:00:19;98215.25;;;5.81;66.29
76195;BME280;64964;48.694;21.206;2024-03-07T11:03:09;98220.91;;;5.86;66.41
76195;BME280;64964;48.694;21.206;2024-03-07T11:05:34;98228.22;;;5.83;66.08
76195;BME280;64964;48.694;21.206;2024-03-07T11:08:02;98225.59;;;5.73;66.26
76195;BME280;64964;48.694;21.206;2024-03-07T11:10:37;98226.00;;;5.78;66.44
76195;BME280;64964;48.694;21.206;2024-03-07T11:13:07;98227.09;;;5.75;66.31
76195;BME280;64964;48.694;21.206;2024-03-07T11:15:36;98223.66;;;5.75;66.17
76195;BME280;64964;48.694;21.206;2024-03-07T11:18:02;98224.63;;;5.74;65.96
76195;BME280;64964;48.694;21.206;2024-03-07T11:20:39;98235.38;;;5.71;65.93
76195;BME280;64964;48.694;21.206;2024-03-07T11:26:04;98225.66;;;5.52;66.61
76195;BME280;64964;48.694;21.206;2024-03-07T11:28:42;98213.63;;;5.49;66.56
76195;BME280;64964;48.694;21.206;2024-03-07T11:31:09;98231.06;;;5.60;66.70
76195;BME280;64964;48.694;21.206;2024-03-07T11:33:37;98220.13;;;5.55;66.66
76195;BME280;64964;48.694;21.206;2024-03-07T11:36:08;98240.34;;;5.64;66.64
76195;BME280;64964;48.694;21.206;2024-03-07T11:38:44;98230.09;;;5.61;66.33
76195;BME280;64964;48.694;21.206;2024-03-07T11:41:09;98228.16;;;5.63;66.33
76195;BME280;64964;48.694;21.206;2024-03-07T11:43:39;98233.41;;;5.63;66.68
76195;BME280;64964;48.694;21.206;2024-03-07T11:46:05;98218.78;;;5.61;66.54
76195;BME280;64964;48.694;21.206;2024-03-07T11:48:39;98178.13;;;5.36;66.64
76195;BME280;64964;48.694;21.206;2024-03-07T11:51:06;98232.16;;;5.67;66.56
76195;BME280;64964;48.694;21.206;2024-03-07T11:53:36;98218.06;;;5.59;66.53
76195;BME280;64964;48.694;21.206;2024-03-07T11:56:03;98224.31;;;5.67;66.61
76195;BME280;64964;48.694;21.206;2024-03-07T11:58:37;98209.78;;;5.63;66.22
76195;BME280;64964;48.694;21.206;2024-03-07T12:01:05;98221.41;;;5.70;66.45
76195;BME280;64964;48.694;21.206;2024-03-07T12:03:31;98226.66;;;5.70;66.47
76195;BME280;64964;48.694;21.206;2024-03-07T12:05:59;98215.19;;;5.62;66.71
76195;BME280;64964;48.694;21.206;2024-03-07T12:08:24;98222.41;;;5.69;66.74
76195;BME280;64964;48.694;21.206;2024-03-07T12:10:51;98217.56;;;5.65;66.70
76195;BME280;64964;48.694;21.206;2024-03-07T12:13:21;98219.78;;;5.69;66.90
76195;BME280;64964;48.694;21.206;2024-03-07T12:15:48;98215.59;;;5.67;67.07
76195;BME280;64964;48.694;21.206;2024-03-07T12:18:17;98227.25;;;5.74;66.88
76195;BME280;64964;48.694;21.206;2024-03-07T12:20:44;98183.69;;;5.52;66.68
76195;BME280;64964;48.694;21.206;2024-03-07T12:23:19;98208.56;;;5.67;66.95
76195;BME280;64964;48.694;21.206;2024-03-07T12:25:45;98227.75;;;5.68;67.30
76195;BME280;64964;48.694;21.206;2024-03-07T12:28:12;98223.91;;;5.72;66.89
76195;BME280;64964;48.694;21.206;2024-03-07T12:33:15;98222.66;;;5.76;66.97
76195;BME280;64964;48.694;21.206;2024-03-07T12:35:42;98215.34;;;5.70;67.60
76195;BME280;64964;48.694;21.206;2024-03-07T12:38:08;98214.94;;;5.74;66.80
76195;BME280;64964;48.694;21.206;2024-03-07T12:40:37;98217.56;;;5.74;67.32
76195;BME280;64964;48.694;21.206;2024-03-07T12:43:12;98161.00;;;5.41;67.71
76195;BME280;64964;48.694;21.206;2024-03-07T12:45:49;98185.19;;;5.55;66.65
76195;BME280;64964;48.694;21.206;2024-03-07T12:48:20;98209.13;;;5.71;66.46
76195;BME280;64964;48.694;21.206;2024-03-07T12:50:50;98225.03;;;5.79;66.35
76195;BME280;64964;48.694;21.206;2024-03-07T12:53:25;98219.63;;;5.71;66.43
76195;BME280;64964;48.694;21.206;2024-03-07T12:55:54;98225.59;;;5.73;66.28
76195;BME280;64964;48.694;21.206;2024-03-07T12:58:20;98229.16;;;5.72;66.17
76195;BME280;64964;48.694;21.206;2024-03-07T13:00:54;98232.88;;;5.69;66.62
76195;BME280;64964;48.694;21.206;2024-03-07T13:03:21;98229.16;;;5.72;66.44
76195;BME280;64964;48.694;21.206;2024-03-07T13:05:47;98205.94;;;5.67;66.04
76195;BME280;64964;48.694;21.206;2024-03-07T13:08:12;98232.59;;;5.72;66.14
76195;BME280;64964;48.694;21.206;2024-03-07T13:10:41;98218.50;;;5.64;66.22